Time;durP1;ratioP1;P1;durP2;ratioP2;P2;SDS_P1;SDS_P2;PMS_P1;PMS_P2;Temp;Humidity;BMP_temperature;BMP_pressure;BME280_temperature;BME280_humidity;BME280_pressure;Samples;Min_cycle;Max_cycle;Signal;HPM_P1;HPM_P2
2021/01/11 00:01:25;;;;;;;31.90;6.57;;;;;;;5.22;100.00;101667.97;5071736;28;20624;-76
2021/01/11 00:03:51;;;;;;;33.93;6.70;;;;;;;5.24;100.00;101624.50;5071418;28;20601;-79
2021/01/11 00:06:16;;;;;;;32.90;6.70;;;;;;;5.27;100.00;101586.16;5071245;28;20999;-77
2021/01/11 00:08:42;;;;;;;37.00;7.17;;;;;;;5.24;100.00;101559.38;5072045;28;20168;-77
2021/01/11 00:11:08;;;;;;;33.50;8.37;;;;;;;5.29;100.00;101542.69;5072018;28;20157;-77
2021/01/11 00:13:33;;;;;;;37.50;6.73;;;;;;;5.27;100.00;101547.06;5070559;28;20545;-77
2021/01/11 00:15:59;;;;;;;36.03;8.13;;;;;;;5.31;100.00;101542.63;5071798;28;20171;-77
2021/01/11 00:18:24;;;;;;;32.90;8.23;;;;;;;5.31;100.00;101554.81;5070976;28;20217;-77
2021/01/11 00:20:50;;;;;;;34.37;7.83;;;;;;;5.33;100.00;101556.47;5071985;28;20222;-77
2021/01/11 00:23:15;;;;;;;35.40;8.70;;;;;;;5.29;100.00;101555.72;5061182;28;20165;-77
2021/01/11 00:25:41;;;;;;;34.80;6.23;;;;;;;5.35;100.00;101569.44;5051606;28;20173;-77
2021/01/11 00:28:07;;;;;;;32.83;5.93;;;;;;;5.40;100.00;101573.59;5051649;28;20168;-76
2021/01/11 00:30:32;;;;;;;39.70;6.43;;;;;;;5.37;100.00;101573.72;5057932;28;20168;-77
2021/01/11 00:32:58;;;;;;;42.97;9.80;;;;;;;5.34;100.00;101599.00;5071883;28;20214;-80
2021/01/11 00:35:23;;;;;;;39.07;7.70;;;;;;;5.37;100.00;101581.53;5069478;28;20557;-77
2021/01/11 00:37:49;;;;;;;33.03;6.53;;;;;;;5.36;100.00;101558.97;5059842;28;20196;-77
2021/01/11 00:40:14;;;;;;;35.67;5.23;;;;;;;5.40;100.00;101544.94;5069966;28;20650;-77
2021/01/11 00:42:39;;;;;;;42.63;6.23;;;;;;;5.38;100.00;101533.72;5062184;28;20197;-78
2021/01/11 00:45:08;;;;;;;34.70;6.90;;;;;;;5.40;100.00;101513.69;5051695;28;20251;-78
2021/01/11 00:47:41;;;;;;;34.90;5.27;;;;;;;5.44;100.00;101504.88;5064253;28;20752;-77
2021/01/11 00:50:08;;;;;;;36.70;12.70;;;;;;;5.44;100.00;101488.34;5067052;28;20398;-78
2021/01/11 00:52:38;;;;;;;34.53;6.67;;;;;;;5.45;100.00;101493.53;5060230;28;20798;-80
2021/01/11 00:55:05;;;;;;;33.40;5.50;;;;;;;5.38;100.00;101507.66;5071704;28;20878;-80
2021/01/11 00:57:31;;;;;;;31.90;6.87;;;;;;;5.39;100.00;101524.16;5065365;28;21013;-77
2021/01/11 00:59:56;;;;;;;34.77;6.93;;;;;;;5.46;100.00;101531.72;5062726;28;20422;-77
2021/01/11 01:02:22;;;;;;;33.07;5.20;;;;;;;5.44;100.00;101564.81;5054290;28;20176;-80
2021/01/11 01:04:47;;;;;;;35.40;5.70;;;;;;;5.40;100.00;101601.41;5052143;28;20203;-79
2021/01/11 01:07:13;;;;;;;35.00;6.37;;;;;;;5.42;100.00;101623.91;5051225;28;20207;-78
2021/01/11 01:09:38;;;;;;;32.87;5.30;;;;;;;5.39;100.00;101623.16;5070676;28;20657;-78
2021/01/11 01:12:04;;;;;;;33.60;5.40;;;;;;;5.45;100.00;101604.75;5071481;28;20164;-81
2021/01/11 01:14:30;;;;;;;36.17;12.17;;;;;;;5.43;100.00;101590.88;5056606;28;20177;-79
2021/01/11 01:16:55;;;;;;;31.67;5.23;;;;;;;5.35;100.00;101585.91;5061799;28;20501;-79
2021/01/11 01:19:21;;;;;;;32.83;4.97;;;;;;;5.44;100.00;101577.84;5069961;28;20172;-79
2021/01/11 01:21:46;;;;;;;32.93;5.50;;;;;;;5.38;100.00;101578.03;5049542;28;20242;-78
2021/01/11 01:24:12;;;;;;;36.40;7.10;;;;;;;5.36;100.00;101591.97;5060807;28;20169;-79
2021/01/11 01:26:37;;;;;;;39.10;6.20;;;;;;;5.34;100.00;101589.44;5063317;28;20774;-79
2021/01/11 01:29:03;;;;;;;33.33;5.83;;;;;;;5.38;100.00;101590.19;5051376;28;20165;-78
2021/01/11 01:31:28;;;;;;;32.80;5.60;;;;;;;5.42;100.00;101587.44;5050700;28;20717;-77
2021/01/11 01:33:54;;;;;;;38.40;5.83;;;;;;;5.45;100.00;101586.50;5063460;28;20203;-78
2021/01/11 01:36:21;;;;;;;35.77;7.53;;;;;;;5.41;100.00;101584.88;5072874;28;20578;-79
2021/01/11 01:38:47;;;;;;;35.20;5.30;;;;;;;5.36;100.00;101576.34;5073486;28;20184;-80
2021/01/11 01:41:12;;;;;;;37.27;10.97;;;;;;;5.43;100.00;101567.44;5075178;28;20957;-79
2021/01/11 01:43:38;;;;;;;35.40;6.50;;;;;;;5.43;100.00;101568.28;5067743;28;20511;-80
2021/01/11 01:46:20;;;;;;;33.80;5.20;;;;;;;5.43;100.00;101557.84;5071089;28;20183;-80
2021/01/11 01:48:45;;;;;;;33.57;5.77;;;;;;;5.53;100.00;101548.88;5064088;28;20180;-77
2021/01/11 01:51:12;;;;;;;40.00;6.40;;;;;;;5.48;100.00;101544.69;5074000;28;20423;-78
2021/01/11 01:53:38;;;;;;;33.40;6.43;;;;;;;5.40;100.00;101550.16;5073895;28;20599;-78
2021/01/11 01:56:05;;;;;;;34.80;6.80;;;;;;;5.49;100.00;101551.59;5071742;28;20403;-79
2021/01/11 01:58:31;;;;;;;38.07;6.97;;;;;;;5.49;100.00;101549.00;5068461;28;20458;-80
2021/01/11 02:00:57;;;;;;;32.70;6.00;;;;;;;5.54;100.00;101542.75;5063051;28;20509;-78
2021/01/11 02:03:23;;;;;;;33.13;5.83;;;;;;;5.51;100.00;101542.81;5062690;28;20180;-78
2021/01/11 02:05:49;;;;;;;32.13;5.00;;;;;;;5.54;100.00;101544.50;5063919;28;20430;-78
2021/01/11 02:08:21;;;;;;;33.10;6.80;;;;;;;5.55;100.00;101547.06;5061609;28;20198;-78
2021/01/11 02:11:11;;;;;;;37.83;6.10;;;;;;;5.53;100.00;101546.25;5074563;28;20402;-79
2021/01/11 02:14:00;;;;;;;39.07;6.67;;;;;;;5.50;100.00;101538.53;5056910;28;20415;-77
2021/01/11 02:16:46;;;;;;;36.20;6.10;;;;;;;5.58;100.00;101515.66;5066467;28;20450;-78
2021/01/11 02:19:17;;;;;;;32.67;5.80;;;;;;;5.59;100.00;101532.16;5073635;28;20426;-79
2021/01/11 02:22:02;;;;;;;33.93;5.80;;;;;;;5.65;100.00;101521.53;5057565;28;20411;-79
2021/01/11 02:24:46;;;;;;;38.33;6.60;;;;;;;5.56;100.00;101516.63;5054061;28;20427;-77
2021/01/11 02:27:30;;;;;;;31.97;5.33;;;;;;;5.63;100.00;101510.31;5062046;28;20466;-79
2021/01/11 02:30:31;;;;;;;35.47;6.07;;;;;;;5.66;100.00;101517.16;5071481;28;20450;-80
2021/01/11 02:33:12;;;;;;;35.50;6.67;;;;;;;5.66;100.00;101504.13;5072182;28;20430;-79
2021/01/11 02:36:17;;;;;;;33.93;5.40;;;;;;;5.68;100.00;101510.16;5072296;28;20790;-79
2021/01/11 02:38:42;;;;;;;35.20;7.30;;;;;;;5.68;100.00;101516.22;5057992;28;20442;-81
2021/01/11 02:41:08;;;;;;;38.57;8.70;;;;;;;5.67;100.00;101506.69;5053690;28;20411;-80
2021/01/11 02:43:33;;;;;;;37.90;8.27;;;;;;;5.78;100.00;101508.94;5065529;28;20558;-79
2021/01/11 02:45:59;;;;;;;34.00;9.27;;;;;;;5.75;100.00;101493.41;5069487;28;20172;-80
2021/01/11 02:48:29;;;;;;;38.70;8.70;;;;;;;5.76;100.00;101487.28;5073638;28;20169;-78
2021/01/11 02:51:14;;;;;;;34.70;8.67;;;;;;;5.82;100.00;101474.88;5067645;28;20222;-77
2021/01/11 02:53:39;;;;;;;34.43;7.80;;;;;;;5.76;100.00;101471.63;5072928;28;20483;-78
2021/01/11 02:56:08;;;;;;;35.80;7.67;;;;;;;5.80;100.00;101462.78;5070389;28;20446;-79
2021/01/11 02:58:43;;;;;;;33.97;8.20;;;;;;;5.77;100.00;101460.31;5050932;28;20643;-79
2021/01/11 03:01:12;;;;;;;36.93;8.57;;;;;;;5.81;100.00;101443.63;5059733;28;20430;-79
2021/01/11 03:03:40;;;;;;;36.20;12.60;;;;;;;5.86;100.00;101439.09;5070662;28;20430;-78
2021/01/11 03:06:11;;;;;;;38.60;8.00;;;;;;;5.87;100.00;101443.41;5072132;28;20438;-79
2021/01/11 03:08:36;;;;;;;34.27;8.23;;;;;;;5.93;100.00;101426.75;5072895;28;20509;-79
2021/01/11 03:11:02;;;;;;;35.03;7.87;;;;;;;5.94;100.00;101418.00;5071276;28;20517;-79
2021/01/11 03:13:27;;;;;;;38.40;7.50;;;;;;;5.96;100.00;101410.97;5072928;28;20193;-80
2021/01/11 03:15:53;;;;;;;40.10;9.57;;;;;;;5.96;100.00;101410.97;5051620;28;20186;-78
2021/01/11 03:18:18;;;;;;;35.10;6.17;;;;;;;6.00;100.00;101407.34;5055199;28;20204;-75
2021/01/11 03:20:44;;;;;;;33.17;8.70;;;;;;;6.05;100.00;101413.25;5038488;28;20694;-79
2021/01/11 03:23:09;;;;;;;34.40;8.33;;;;;;;6.08;100.00;101416.59;5071222;28;20726;-78
2021/01/11 03:25:36;;;;;;;36.57;8.17;;;;;;;6.03;100.00;101418.50;5070523;28;20176;-78
2021/01/11 03:28:03;;;;;;;40.03;14.50;;;;;;;6.08;100.00;101418.34;5052529;28;20299;-78
2021/01/11 03:30:29;;;;;;;34.53;9.93;;;;;;;6.14;100.00;101405.09;5048324;28;20499;-77
2021/01/11 03:32:54;;;;;;;37.47;8.37;;;;;;;6.17;100.00;101399.75;5048912;28;20442;-77
2021/01/11 03:35:20;;;;;;;36.07;9.87;;;;;;;6.15;100.00;101395.50;5059962;28;20426;-79
2021/01/11 03:37:45;;;;;;;37.43;10.37;;;;;;;6.18;100.00;101390.16;5067847;28;20193;-77
2021/01/11 03:40:11;;;;;;;44.57;23.60;;;;;;;6.22;100.00;101400.44;5068316;28;20164;-75
2021/01/11 03:42:38;;;;;;;42.33;13.37;;;;;;;6.24;100.00;101406.44;5070983;28;20196;-75
2021/01/11 03:45:07;;;;;;;35.03;6.00;;;;;;;6.24;100.00;101410.78;5071538;28;20814;-76
2021/01/11 03:47:32;;;;;;;40.47;9.20;;;;;;;6.26;100.00;101404.59;5070514;28;20441;-76
2021/01/11 03:49:58;;;;;;;38.43;8.97;;;;;;;6.29;100.00;101380.16;5066925;28;20412;-75
2021/01/11 03:52:24;;;;;;;41.37;10.67;;;;;;;6.37;100.00;101365.06;5052922;28;20608;-79
2021/01/11 03:54:50;;;;;;;46.20;10.00;;;;;;;6.40;100.00;101368.38;5052553;28;20169;-75
2021/01/11 03:57:16;;;;;;;38.03;11.03;;;;;;;6.44;100.00;101381.34;5066612;28;20519;-76
2021/01/11 03:59:41;;;;;;;41.37;10.20;;;;;;;6.44;100.00;101394.38;5051929;28;20396;-77
2021/01/11 04:02:07;;;;;;;43.83;11.77;;;;;;;6.50;100.00;101375.84;5067885;28;20177;-79
2021/01/11 04:04:33;;;;;;;39.47;14.87;;;;;;;6.50;100.00;101362.78;5073192;28;20243;-79
2021/01/11 04:06:58;;;;;;;40.93;12.47;;;;;;;6.54;100.00;101352.19;5071335;28;20840;-82
2021/01/11 04:09:25;;;;;;;38.43;10.87;;;;;;;6.61;100.00;101358.84;5072495;28;20161;-79
2021/01/11 04:11:51;;;;;;;41.27;11.17;;;;;;;6.63;100.00;101358.78;5071239;28;20203;-81
2021/01/11 04:14:18;;;;;;;42.43;14.03;;;;;;;6.64;100.00;101352.66;5071839;28;20482;-77
2021/01/11 04:16:44;;;;;;;42.47;9.90;;;;;;;6.72;100.00;101358.41;5066823;28;20450;-79
2021/01/11 04:19:10;;;;;;;49.57;24.50;;;;;;;6.79;100.00;101357.25;5072124;28;20438;-78
2021/01/11 04:21:36;;;;;;;40.17;17.03;;;;;;;6.77;100.00;101343.41;5070898;28;20230;-78
2021/01/11 04:24:02;;;;;;;44.33;29.10;;;;;;;6.91;100.00;101327.19;5072094;28;20395;-78
2021/01/11 04:26:27;;;;;;;41.13;15.00;;;;;;;6.93;100.00;101349.69;5060896;28;20473;-76
2021/01/11 04:28:53;;;;;;;51.67;38.87;;;;;;;6.88;100.00;101359.50;5070418;28;20172;-79
2021/01/11 04:31:18;;;;;;;40.87;15.77;;;;;;;7.00;100.00;101360.75;5068031;28;20160;-77
2021/01/11 04:33:44;;;;;;;43.03;12.53;;;;;;;7.07;100.00;101345.66;5070638;28;20187;-76
2021/01/11 04:36:10;;;;;;;39.83;14.10;;;;;;;7.01;100.00;101367.66;5071964;28;20540;-77
2021/01/11 04:38:35;;;;;;;42.17;13.23;;;;;;;7.03;100.00;101385.88;5043739;28;20291;-76
2021/01/11 04:41:05;;;;;;;43.47;16.37;;;;;;;7.00;100.00;101376.41;5063298;28;20184;-77
2021/01/11 04:43:43;;;;;;;50.90;32.93;;;;;;;7.05;100.00;101373.63;5070590;28;20313;-78
2021/01/11 04:46:09;;;;;;;43.93;14.30;;;;;;;7.03;100.00;101376.31;5068695;28;20457;-79
2021/01/11 04:48:35;;;;;;;38.97;11.47;;;;;;;7.05;100.00;101373.63;5051888;28;20431;-80
2021/01/11 04:51:01;;;;;;;36.63;12.97;;;;;;;7.06;100.00;101396.22;5056507;28;20419;-76
2021/01/11 04:53:28;;;;;;;43.40;10.90;;;;;;;7.01;100.00;101406.84;5061112;28;20265;-78
2021/01/11 04:55:56;;;;;;;39.23;8.73;;;;;;;7.07;100.00;101405.75;5061899;28;20529;-76
2021/01/11 04:58:25;;;;;;;37.83;7.70;;;;;;;7.09;100.00;101409.16;5070168;28;20458;-78
2021/01/11 05:00:59;;;;;;;38.30;12.67;;;;;;;7.11;100.00;101405.56;5065531;28;20854;-76
2021/01/11 05:03:25;;;;;;;37.93;9.87;;;;;;;7.07;100.00;101424.88;5070342;28;20445;-79
2021/01/11 05:05:50;;;;;;;36.63;11.57;;;;;;;7.07;100.00;101435.34;5071594;28;20407;-79
2021/01/11 05:08:16;;;;;;;37.47;8.87;;;;;;;7.08;100.00;101416.13;5071561;28;20457;-80
2021/01/11 05:10:42;;;;;;;36.00;8.10;;;;;;;7.09;100.00;101411.75;5070275;28;20191;-80
2021/01/11 05:13:09;;;;;;;41.83;7.90;;;;;;;7.00;100.00;101426.06;5073753;28;20164;-79
2021/01/11 05:15:37;;;;;;;37.93;7.87;;;;;;;7.04;100.00;101424.19;5074016;28;20188;-80
2021/01/11 05:18:13;;;;;;;35.80;6.43;;;;;;;7.05;100.00;101400.59;5043628;28;21056;-80
2021/01/11 05:20:39;;;;;;;36.70;12.93;;;;;;;7.06;100.00;101391.00;5057311;28;20431;-80
2021/01/11 05:23:15;;;;;;;36.90;8.50;;;;;;;7.08;100.00;101392.63;5071968;28;20460;-80
2021/01/11 05:25:42;;;;;;;35.03;7.30;;;;;;;7.08;100.00;101373.47;5061960;28;20168;-79
2021/01/11 05:28:11;;;;;;;35.37;10.83;;;;;;;7.06;100.00;101394.44;5056704;28;20846;-80
2021/01/11 05:30:39;;;;;;;60.90;54.90;;;;;;;7.06;100.00;101399.69;5056989;28;20431;-79
2021/01/11 05:33:06;;;;;;;29.27;5.50;;;;;;;7.11;100.00;101412.56;5074986;28;20460;-77
2021/01/11 05:35:33;;;;;;;38.73;11.63;;;;;;;7.06;100.00;101415.34;5073887;28;20430;-76
2021/01/11 05:38:00;;;;;;;36.13;12.97;;;;;;;7.08;100.00;101410.06;5055865;28;20465;-78
2021/01/11 05:40:28;;;;;;;34.97;11.20;;;;;;;7.12;100.00;101409.03;5065877;28;20948;-77
2021/01/11 05:42:58;;;;;;;38.20;14.37;;;;;;;7.05;100.00;101412.81;5072123;28;20433;-78
2021/01/11 05:45:29;;;;;;;35.43;10.80;;;;;;;7.04;100.00;101417.19;5053998;28;20392;-76
2021/01/11 05:48:06;;;;;;;39.03;17.40;;;;;;;7.05;100.00;101415.44;5072774;28;20494;-78
2021/01/11 05:50:46;;;;;;;34.30;8.93;;;;;;;7.04;100.00;101418.97;5073606;28;20446;-76
2021/01/11 05:53:24;;;;;;;44.83;15.43;;;;;;;6.91;100.00;101416.84;5073301;28;20851;-78
2021/01/11 05:55:52;;;;;;;33.87;10.40;;;;;;;6.98;100.00;101419.19;5074300;28;20430;-78
2021/01/11 05:58:18;;;;;;;33.13;6.90;;;;;;;6.94;100.00;101429.75;5073553;28;20531;-74
2021/01/11 06:00:44;;;;;;;33.10;5.97;;;;;;;6.90;100.00;101417.75;5069654;28;20854;-77
2021/01/11 06:03:11;;;;;;;33.57;8.57;;;;;;;6.90;100.00;101419.50;5055031;28;20917;-76
2021/01/11 06:05:37;;;;;;;34.50;8.17;;;;;;;6.80;100.00;101419.03;5066902;28;20208;-77
2021/01/11 06:08:05;;;;;;;33.50;9.47;;;;;;;6.80;100.00;101415.56;5072386;28;20462;-79
2021/01/11 06:10:31;;;;;;;33.27;7.03;;;;;;;6.77;100.00;101420.91;5064272;28;20173;-78
2021/01/11 06:12:56;;;;;;;34.03;9.00;;;;;;;6.74;100.00;101421.88;5054153;28;20424;-81
2021/01/11 06:15:27;;;;;;;32.80;9.00;;;;;;;6.67;100.00;101418.66;5054608;28;20251;-78
2021/01/11 06:17:54;;;;;;;33.53;10.30;;;;;;;6.71;100.00;101416.78;5067277;28;20236;-79
2021/01/11 06:20:22;;;;;;;33.33;10.47;;;;;;;6.69;100.00;101429.03;5069884;28;20430;-75
2021/01/11 06:22:51;;;;;;;36.70;13.37;;;;;;;6.64;100.00;101434.44;5069617;28;20914;-78
2021/01/11 06:25:26;;;;;;;34.30;10.47;;;;;;;6.68;100.00;101429.97;5063684;28;20850;-80
2021/01/11 06:27:59;;;;;;;33.67;8.80;;;;;;;6.72;100.00;101421.06;5053664;28;20478;-79
2021/01/11 06:30:33;;;;;;;38.63;14.57;;;;;;;6.72;100.00;101428.91;5072411;28;20418;-81
2021/01/11 06:33:11;;;;;;;34.70;10.20;;;;;;;6.76;100.00;101421.81;5072828;28;20483;-80
2021/01/11 06:35:41;;;;;;;37.43;14.27;;;;;;;6.75;100.00;101427.97;5073018;28;20487;-79
2021/01/11 06:38:26;;;;;;;35.10;9.53;;;;;;;6.86;100.00;101441.44;5073584;28;20457;-81
2021/01/11 06:40:57;;;;;;;40.43;12.37;;;;;;;6.95;100.00;101460.22;5073570;28;20395;-80
2021/01/11 06:43:23;;;;;;;38.00;14.43;;;;;;;7.01;100.00;101473.91;5073135;28;20426;-81
2021/01/11 06:45:50;;;;;;;37.97;13.97;;;;;;;7.10;100.00;101476.16;5069525;28;20422;-79
2021/01/11 06:48:18;;;;;;;36.90;12.60;;;;;;;7.11;100.00;101483.13;5072588;28;20192;-81
2021/01/11 06:50:45;;;;;;;51.00;23.43;;;;;;;7.20;100.00;101475.75;5070846;28;20400;-81
2021/01/11 06:53:11;;;;;;;56.27;27.53;;;;;;;7.29;100.00;101455.38;5075480;28;20423;-79
2021/01/11 06:55:37;;;;;;;39.70;16.23;;;;;;;7.42;100.00;101467.00;5072510;28;20944;-78
2021/01/11 06:58:03;;;;;;;42.60;15.43;;;;;;;7.38;100.00;101457.59;5072372;28;20466;-76
2021/01/11 07:00:38;;;;;;;41.37;22.23;;;;;;;7.42;100.00;101467.00;5069284;28;20643;-78
2021/01/11 07:03:06;;;;;;;40.37;17.20;;;;;;;7.44;100.00;101476.50;5052736;28;20403;-78
2021/01/11 07:05:37;;;;;;;40.80;19.17;;;;;;;7.48;100.00;101485.03;5052707;28;20921;-77
2021/01/11 07:08:08;;;;;;;43.33;20.23;;;;;;;7.46;100.00;101471.19;5052879;28;20408;-79
2021/01/11 07:10:41;;;;;;;43.03;15.90;;;;;;;7.46;100.00;101448.50;5054082;28;20428;-77
2021/01/11 07:13:19;;;;;;;45.57;21.20;;;;;;;7.41;100.00;101439.19;5061594;28;20963;-78
2021/01/11 07:15:51;;;;;;;45.53;21.60;;;;;;;7.40;100.00;101440.06;5062108;28;20497;-77
2021/01/11 07:18:38;;;;;;;42.37;16.60;;;;;;;7.40;100.00;101487.13;5066624;28;20454;-77
2021/01/11 07:21:23;;;;;;;44.70;17.00;;;;;;;7.33;100.00;101498.75;5070026;28;20453;-78
2021/01/11 07:23:50;;;;;;;43.67;22.97;;;;;;;7.35;100.00;101500.41;5072522;28;20456;-78
2021/01/11 07:26:18;;;;;;;41.53;16.47;;;;;;;7.32;100.00;101486.59;5071347;28;20462;-78
2021/01/11 07:28:55;;;;;;;39.43;12.67;;;;;;;7.37;100.00;101469.81;5072647;28;20486;-79
2021/01/11 07:31:47;;;;;;;39.07;12.87;;;;;;;7.44;100.00;101471.25;5071390;28;20959;-77
2021/01/11 07:34:17;;;;;;;41.97;16.10;;;;;;;7.45;100.00;101466.88;5065170;28;20489;-75
2021/01/11 07:36:45;;;;;;;37.80;10.40;;;;;;;7.38;100.00;101450.59;5069628;28;20462;-74
2021/01/11 07:39:18;;;;;;;42.13;9.50;;;;;;;7.38;100.00;101455.81;5072817;28;20399;-80
2021/01/11 07:41:47;;;;;;;48.33;11.77;;;;;;;7.43;100.00;101460.88;5070820;28;20442;-79
2021/01/11 07:44:18;;;;;;;48.07;12.60;;;;;;;7.43;100.00;101461.72;5072172;28;20480;-77
2021/01/11 07:46:51;;;;;;;41.40;9.33;;;;;;;7.49;100.00;101464.09;5063893;28;20424;-80
2021/01/11 07:49:17;;;;;;;39.83;10.03;;;;;;;7.44;100.00;101439.88;5052798;28;20570;-79
2021/01/11 07:51:49;;;;;;;40.20;9.70;;;;;;;7.42;100.00;101426.03;5064426;28;20514;-76
2021/01/11 07:54:21;;;;;;;59.67;14.77;;;;;;;7.45;100.00;101397.13;5068878;28;20496;-80
2021/01/11 07:56:48;;;;;;;46.53;13.13;;;;;;;7.48;100.00;101386.56;5071254;28;21002;-77
2021/01/11 07:59:15;;;;;;;45.73;13.50;;;;;;;7.48;100.00;101385.69;5071448;28;20752;-73
2021/01/11 08:01:42;;;;;;;38.47;10.27;;;;;;;7.44;100.00;101364.06;5070486;28;20458;-79
2021/01/11 08:04:12;;;;;;;49.23;11.47;;;;;;;7.48;100.00;101310.75;5071478;28;20999;-80
2021/01/11 08:06:56;;;;;;;43.50;9.83;;;;;;;7.47;100.00;101387.44;5072536;28;20417;-78
2021/01/11 08:09:26;;;;;;;42.23;15.43;;;;;;;7.63;100.00;101434.72;5069929;28;20484;-76
2021/01/11 08:12:06;;;;;;;43.80;11.20;;;;;;;7.69;100.00;101431.81;5070828;28;20407;-77
2021/01/11 08:14:32;;;;;;;47.20;10.93;;;;;;;7.68;100.00;101421.44;5064360;28;20427;-77
2021/01/11 08:16:58;;;;;;;43.70;10.70;;;;;;;7.72;100.00;101418.63;5067204;28;20535;-81
2021/01/11 08:19:24;;;;;;;46.03;16.13;;;;;;;7.74;100.00;101408.94;5052873;28;20261;-81
2021/01/11 08:21:58;;;;;;;39.17;9.80;;;;;;;7.66;100.00;101413.66;5053149;28;20223;-82
2021/01/11 08:24:23;;;;;;;38.20;9.10;;;;;;;7.65;100.00;101440.75;5064215;28;20176;-79
2021/01/11 08:27:06;;;;;;;41.23;9.33;;;;;;;7.62;100.00;101442.63;5069537;28;20481;-79
2021/01/11 08:29:41;;;;;;;42.93;13.47;;;;;;;7.66;100.00;101458.13;5051515;28;20177;-78
2021/01/11 08:32:12;;;;;;;41.13;8.20;;;;;;;7.64;100.00;101451.28;5052637;28;20450;-80
2021/01/11 08:34:40;;;;;;;45.13;6.40;;;;;;;7.64;100.00;101462.59;5070894;28;20497;-79
2021/01/11 08:37:30;;;;;;;36.33;6.87;;;;;;;7.59;100.00;101454.06;5071846;28;21113;-78
2021/01/11 08:40:05;;;;;;;38.27;7.07;;;;;;;7.56;100.00;101437.66;5053368;28;20438;-79
2021/01/11 08:42:33;;;;;;;48.93;8.40;;;;;;;7.55;100.00;101425.50;5070468;28;20433;-74
2021/01/11 08:45:26;;;;;;;46.47;12.60;;;;;;;7.58;100.00;101405.31;5071559;28;20387;-78
2021/01/11 08:48:01;;;;;;;46.13;18.63;;;;;;;7.49;100.00;101416.16;5063183;28;20403;-76
2021/01/11 08:50:27;;;;;;;36.47;6.00;;;;;;;7.53;100.00;101417.72;5058412;28;20394;-80
2021/01/11 08:52:53;;;;;;;41.30;9.87;;;;;;;7.63;100.00;101433.84;5060388;28;20843;-74
2021/01/11 08:55:19;;;;;;;40.90;7.97;;;;;;;7.53;100.00;101422.09;5066114;28;20937;-77
2021/01/11 08:57:58;;;;;;;36.90;7.00;;;;;;;7.57;100.00;101416.69;5069951;28;20200;-75
2021/01/11 09:00:24;;;;;;;37.87;10.40;;;;;;;7.56;100.00;101427.19;5056770;28;20436;-77
2021/01/11 09:02:50;;;;;;;40.57;6.67;;;;;;;7.60;100.00;101428.78;5074597;28;20402;-78
2021/01/11 09:05:23;;;;;;;39.87;7.27;;;;;;;7.66;100.00;101423.28;5056352;28;20200;-75
2021/01/11 09:07:53;;;;;;;39.70;7.17;;;;;;;7.64;100.00;101409.44;5074507;28;20594;-75
2021/01/11 09:10:24;;;;;;;42.30;5.57;;;;;;;7.63;100.00;101407.72;5074428;28;20413;-80
2021/01/11 09:12:51;;;;;;;39.43;6.50;;;;;;;7.68;100.00;101398.75;5074766;28;20896;-74
2021/01/11 09:15:27;;;;;;;38.97;5.43;;;;;;;7.74;100.00;101400.25;5074122;28;20501;-76
2021/01/11 09:18:04;;;;;;;36.10;5.63;;;;;;;7.64;100.00;101405.03;5060734;28;20462;-71
2021/01/11 09:20:30;;;;;;;35.10;6.63;;;;;;;7.70;100.00;101427.44;5066574;28;20519;-71
2021/01/11 09:22:57;;;;;;;41.50;12.33;;;;;;;7.75;100.00;101455.09;5073697;28;20414;-75
2021/01/11 09:25:23;;;;;;;40.80;7.00;;;;;;;7.75;100.00;101442.03;5062395;28;20450;-72
2021/01/11 09:27:49;;;;;;;40.37;9.73;;;;;;;7.77;100.00;101457.66;5054316;28;20888;-73
2021/01/11 09:30:15;;;;;;;42.43;5.50;;;;;;;7.72;100.00;101472.72;5070125;28;20995;-73
2021/01/11 09:32:43;;;;;;;41.63;7.10;;;;;;;7.70;100.00;101477.13;5065771;28;20433;-75
2021/01/11 09:35:09;;;;;;;36.77;4.80;;;;;;;7.67;100.00;101485.97;5069264;28;20399;-73
2021/01/11 09:37:35;;;;;;;38.13;7.67;;;;;;;7.66;100.00;101491.28;5056488;28;20465;-74
2021/01/11 09:40:01;;;;;;;37.63;5.60;;;;;;;7.59;100.00;101500.28;5054743;28;20418;-76
2021/01/11 09:42:26;;;;;;;38.80;7.10;;;;;;;7.57;100.00;101484.69;5064705;28;20197;-74
2021/01/11 09:44:52;;;;;;;44.90;6.10;;;;;;;7.62;100.00;101490.53;5053909;28;20157;-74
2021/01/11 09:47:17;;;;;;;36.17;6.63;;;;;;;7.62;100.00;101484.47;5060566;28;20176;-75
2021/01/11 09:49:43;;;;;;;36.50;6.70;;;;;;;7.60;100.00;101471.47;5060031;28;20165;-74
2021/01/11 09:52:08;;;;;;;37.10;8.73;;;;;;;7.51;100.00;101459.63;5073308;28;20575;-74
2021/01/11 09:54:34;;;;;;;35.23;6.17;;;;;;;7.53;100.00;101448.25;5073446;28;20191;-75
2021/01/11 09:57:00;;;;;;;36.03;5.57;;;;;;;7.54;100.00;101429.88;5071536;28;20196;-73
2021/01/11 09:59:26;;;;;;;40.60;7.17;;;;;;;7.55;100.00;101436.81;5054424;28;20250;-74
2021/01/11 10:01:53;;;;;;;41.83;6.33;;;;;;;7.65;100.00;101447.75;5062285;28;20169;-75
2021/01/11 10:04:19;;;;;;;36.23;6.07;;;;;;;7.61;100.00;101448.78;5073380;28;20487;-73
2021/01/11 10:06:53;;;;;;;45.90;7.10;;;;;;;7.70;100.00;101453.59;5065332;28;20930;-73
2021/01/11 10:09:21;;;;;;;40.63;8.03;;;;;;;7.66;100.00;101452.91;5067435;28;20557;-72
2021/01/11 10:11:49;;;;;;;41.50;6.77;;;;;;;7.74;100.00;101456.03;5064823;28;20438;-73
2021/01/11 10:14:15;;;;;;;38.87;9.63;;;;;;;7.81;100.00;101464.47;5057364;28;20426;-74
2021/01/11 10:16:44;;;;;;;38.40;6.40;;;;;;;7.79;100.00;101474.16;5072922;28;20469;-74
2021/01/11 10:19:14;;;;;;;37.10;7.03;;;;;;;7.81;100.00;101484.53;5072910;28;20169;-73
2021/01/11 10:21:40;;;;;;;37.10;5.70;;;;;;;7.78;100.00;101482.88;5057157;28;20442;-76
2021/01/11 10:24:09;;;;;;;35.97;5.57;;;;;;;7.91;100.00;101485.81;5053099;28;20431;-75
2021/01/11 10:26:35;;;;;;;42.80;8.20;;;;;;;7.76;100.00;101472.50;5062751;28;20314;-76
2021/01/11 10:29:02;;;;;;;39.57;7.37;;;;;;;7.80;100.00;101478.47;5072078;28;20493;-76
2021/01/11 10:31:27;;;;;;;37.30;8.07;;;;;;;7.86;100.00;101485.16;5072537;28;20234;-76
2021/01/11 10:33:53;;;;;;;42.13;7.80;;;;;;;7.90;100.00;101476.28;5072745;28;20403;-74
2021/01/11 10:36:19;;;;;;;38.10;7.07;;;;;;;7.89;100.00;101471.97;5061336;28;20223;-78
2021/01/11 10:38:44;;;;;;;41.40;6.77;;;;;;;7.75;100.00;101459.50;5053302;28;20169;-75
2021/01/11 10:41:18;;;;;;;40.13;6.17;;;;;;;7.93;100.00;101461.28;5052418;28;20185;-75
2021/01/11 10:43:50;;;;;;;44.30;11.63;;;;;;;7.72;100.00;101428.25;5069104;28;20175;-73
2021/01/11 10:46:16;;;;;;;38.77;6.70;;;;;;;7.72;100.00;101438.72;5072319;28;20399;-73
2021/01/11 10:48:43;;;;;;;40.63;7.33;;;;;;;7.72;100.00;101444.78;5062361;28;20434;-74
2021/01/11 10:51:11;;;;;;;36.73;6.43;;;;;;;7.74;100.00;101444.72;5053239;28;20308;-72
2021/01/11 10:53:41;;;;;;;42.73;7.97;;;;;;;7.88;100.00;101442.34;5062560;28;20446;-72
2021/01/11 10:56:07;;;;;;;39.50;7.27;;;;;;;7.93;100.00;101440.34;5058746;28;20964;-72
2021/01/11 10:58:34;;;;;;;38.60;9.57;;;;;;;7.87;100.00;101431.97;5052500;28;20538;-72
2021/01/11 11:01:00;;;;;;;36.47;6.87;;;;;;;7.85;100.00;101428.53;5052900;28;20410;-74
2021/01/11 11:03:26;;;;;;;36.20;5.57;;;;;;;7.83;100.00;101426.00;5052527;28;20400;-72
2021/01/11 11:05:53;;;;;;;35.93;7.23;;;;;;;7.89;100.00;101432.72;5052193;28;20399;-73
2021/01/11 11:08:19;;;;;;;42.77;6.50;;;;;;;7.83;100.00;101439.06;5034028;28;20173;-73
2021/01/11 11:10:46;;;;;;;37.53;5.97;;;;;;;7.98;100.00;101437.53;5033687;28;20427;-73
2021/01/11 11:13:12;;;;;;;40.40;6.67;;;;;;;7.91;100.00;101430.88;5052000;28;20827;-71
2021/01/11 11:15:37;;;;;;;41.17;7.30;;;;;;;7.88;100.00;101418.81;5051944;28;20400;-71
2021/01/11 11:18:03;;;;;;;37.67;6.90;;;;;;;7.90;100.00;101411.72;5052804;28;20226;-72
2021/01/11 11:20:28;;;;;;;45.47;7.33;;;;;;;7.85;100.00;101387.53;5072126;28;20537;-73
2021/01/11 11:22:54;;;;;;;41.57;14.50;;;;;;;7.83;100.00;101394.59;5069165;28;20247;-76